sensor_id;sensor_type;location;lat;lon;timestamp;P1;durP1;ratioP1;P2;durP2;ratioP2
53010;SDS011;42803;55.762;38.084;2022-09-30T00:01:58;17.55;;;9.32;;
53010;SDS011;42803;55.762;38.084;2022-09-30T00:04:28;15.63;;;8.40;;
53010;SDS011;42803;55.762;38.084;2022-09-30T00:06:57;13.45;;;8.05;;
53010;SDS011;42803;55.762;38.084;2022-09-30T00:09:27;16.02;;;9.07;;
53010;SDS011;42803;55.762;38.084;2022-09-30T00:11:56;16.38;;;9.02;;
53010;SDS011;42803;55.762;38.084;2022-09-30T00:14:30;17.02;;;8.27;;
53010;SDS011;42803;55.762;38.084;2022-09-30T00:16:59;16.65;;;9.20;;
53010;SDS011;42803;55.762;38.084;2022-09-30T00:19:28;21.77;;;9.65;;
53010;SDS011;42803;55.762;38.084;2022-09-30T00:21:58;19.63;;;9.32;;
53010;SDS011;42803;55.762;38.084;2022-09-30T00:24:29;18.90;;;9.63;;
53010;SDS011;42803;55.762;38.084;2022-09-30T00:26:59;16.33;;;9.52;;
53010;SDS011;42803;55.762;38.084;2022-09-30T00:29:30;16.52;;;9.13;;
53010;SDS011;42803;55.762;38.084;2022-09-30T00:31:59;19.60;;;10.27;;
53010;SDS011;42803;55.762;38.084;2022-09-30T00:34:29;17.92;;;10.27;;
53010;SDS011;42803;55.762;38.084;2022-09-30T00:36:58;17.67;;;8.98;;
53010;SDS011;42803;55.762;38.084;2022-09-30T00:39:29;18.70;;;9.40;;
53010;SDS011;42803;55.762;38.084;2022-09-30T00:41:59;15.45;;;8.40;;
53010;SDS011;42803;55.762;38.084;2022-09-30T00:44:44;18.40;;;9.35;;
53010;SDS011;42803;55.762;38.084;2022-09-30T00:47:36;17.25;;;8.35;;
53010;SDS011;42803;55.762;38.084;2022-09-30T00:50:15;19.13;;;8.52;;
53010;SDS011;42803;55.762;38.084;2022-09-30T00:52:53;18.95;;;9.60;;
53010;SDS011;42803;55.762;38.084;2022-09-30T00:58:04;14.73;;;7.50;;
53010;SDS011;42803;55.762;38.084;2022-09-30T01:00:37;15.90;;;8.25;;
53010;SDS011;42803;55.762;38.084;2022-09-30T01:03:07;17.92;;;8.93;;
53010;SDS011;42803;55.762;38.084;2022-09-30T01:05:37;17.75;;;8.65;;
53010;SDS011;42803;55.762;38.084;2022-09-30T01:08:06;16.08;;;8.38;;
53010;SDS011;42803;55.762;38.084;2022-09-30T01:10:38;15.30;;;8.20;;
53010;SDS011;42803;55.762;38.084;2022-09-30T01:13:07;18.15;;;9.60;;
53010;SDS011;42803;55.762;38.084;2022-09-30T01:15:43;16.60;;;8.60;;
53010;SDS011;42803;55.762;38.084;2022-09-30T01:18:25;17.02;;;8.98;;
53010;SDS011;42803;55.762;38.084;2022-09-30T01:27:22;18.48;;;8.43;;
53010;SDS011;42803;55.762;38.084;2022-09-30T01:30:05;17.35;;;10.00;;
53010;SDS011;42803;55.762;38.084;2022-09-30T01:35:46;18.65;;;8.80;;
53010;SDS011;42803;55.762;38.084;2022-09-30T01:38:29;15.25;;;9.02;;
53010;SDS011;42803;55.762;38.084;2022-09-30T01:41:10;15.07;;;8.32;;
53010;SDS011;42803;55.762;38.084;2022-09-30T01:43:53;15.65;;;8.88;;
53010;SDS011;42803;55.762;38.084;2022-09-30T01:46:32;16.58;;;8.98;;
53010;SDS011;42803;55.762;38.084;2022-09-30T01:49:09;16.55;;;8.77;;
53010;SDS011;42803;55.762;38.084;2022-09-30T01:51:48;14.35;;;7.97;;
53010;SDS011;42803;55.762;38.084;2022-09-30T01:54:25;16.02;;;8.15;;
53010;SDS011;42803;55.762;38.084;2022-09-30T01:57:00;15.80;;;8.38;;
53010;SDS011;42803;55.762;38.084;2022-09-30T01:59:34;21.95;;;9.07;;
53010;SDS011;42803;55.762;38.084;2022-09-30T02:02:08;15.82;;;7.88;;
53010;SDS011;42803;55.762;38.084;2022-09-30T02:04:45;18.90;;;8.37;;
53010;SDS011;42803;55.762;38.084;2022-09-30T02:07:20;17.85;;;9.13;;
53010;SDS011;42803;55.762;38.084;2022-09-30T02:09:53;16.65;;;8.05;;
53010;SDS011;42803;55.762;38.084;2022-09-30T02:12:30;12.80;;;7.65;;
53010;SDS011;42803;55.762;38.084;2022-09-30T02:15:07;14.70;;;8.75;;
53010;SDS011;42803;55.762;38.084;2022-09-30T02:17:40;12.70;;;7.38;;
53010;SDS011;42803;55.762;38.084;2022-09-30T02:20:16;15.73;;;8.50;;
53010;SDS011;42803;55.762;38.084;2022-09-30T02:22:50;17.17;;;9.23;;
53010;SDS011;42803;55.762;38.084;2022-09-30T02:25:23;17.77;;;8.85;;
53010;SDS011;42803;55.762;38.084;2022-09-30T02:27:57;17.17;;;8.68;;
53010;SDS011;42803;55.762;38.084;2022-09-30T02:30:31;19.90;;;11.10;;
53010;SDS011;42803;55.762;38.084;2022-09-30T02:33:03;14.73;;;8.18;;
53010;SDS011;42803;55.762;38.084;2022-09-30T02:35:37;16.77;;;9.25;;
53010;SDS011;42803;55.762;38.084;2022-09-30T02:38:13;16.23;;;8.23;;
53010;SDS011;42803;55.762;38.084;2022-09-30T02:40:46;16.35;;;8.65;;
53010;SDS011;42803;55.762;38.084;2022-09-30T02:43:19;17.55;;;9.00;;
53010;SDS011;42803;55.762;38.084;2022-09-30T02:45:49;14.88;;;9.00;;
53010;SDS011;42803;55.762;38.084;2022-09-30T02:48:28;18.23;;;8.40;;
53010;SDS011;42803;55.762;38.084;2022-09-30T02:51:09;15.38;;;8.68;;
53010;SDS011;42803;55.762;38.084;2022-09-30T02:53:44;18.95;;;9.05;;
53010;SDS011;42803;55.762;38.084;2022-09-30T02:56:22;18.00;;;8.60;;
53010;SDS011;42803;55.762;38.084;2022-09-30T02:58:54;18.33;;;9.30;;
53010;SDS011;42803;55.762;38.084;2022-09-30T03:01:24;17.63;;;9.95;;
53010;SDS011;42803;55.762;38.084;2022-09-30T03:03:54;18.25;;;9.85;;
53010;SDS011;42803;55.762;38.084;2022-09-30T03:06:27;16.10;;;8.98;;
53010;SDS011;42803;55.762;38.084;2022-09-30T03:08:56;17.80;;;9.07;;
53010;SDS011;42803;55.762;38.084;2022-09-30T03:11:27;19.20;;;10.05;;
53010;SDS011;42803;55.762;38.084;2022-09-30T03:14:02;15.90;;;9.13;;
53010;SDS011;42803;55.762;38.084;2022-09-30T03:16:55;18.75;;;9.00;;
53010;SDS011;42803;55.762;38.084;2022-09-30T03:19:48;17.00;;;8.27;;
53010;SDS011;42803;55.762;38.084;2022-09-30T03:22:41;17.42;;;9.82;;
53010;SDS011;42803;55.762;38.084;2022-09-30T03:25:24;19.42;;;9.05;;
53010;SDS011;42803;55.762;38.084;2022-09-30T03:28:03;16.98;;;8.85;;
53010;SDS011;42803;55.762;38.084;2022-09-30T03:30:44;17.70;;;8.68;;
53010;SDS011;42803;55.762;38.084;2022-09-30T03:33:22;15.65;;;8.27;;
53010;SDS011;42803;55.762;38.084;2022-09-30T03:35:56;15.57;;;8.45;;
53010;SDS011;42803;55.762;38.084;2022-09-30T03:38:33;17.45;;;9.18;;
53010;SDS011;42803;55.762;38.084;2022-09-30T03:41:10;17.30;;;9.27;;
53010;SDS011;42803;55.762;38.084;2022-09-30T03:43:46;17.25;;;8.55;;
53010;SDS011;42803;55.762;38.084;2022-09-30T03:46:18;16.45;;;8.50;;
53010;SDS011;42803;55.762;38.084;2022-09-30T03:48:51;17.83;;;9.43;;
53010;SDS011;42803;55.762;38.084;2022-09-30T03:51:23;18.50;;;9.60;;
53010;SDS011;42803;55.762;38.084;2022-09-30T03:53:54;17.50;;;8.50;;
53010;SDS011;42803;55.762;38.084;2022-09-30T03:56:25;15.00;;;7.90;;
53010;SDS011;42803;55.762;38.084;2022-09-30T03:58:56;16.88;;;8.57;;
53010;SDS011;42803;55.762;38.084;2022-09-30T04:01:26;16.58;;;8.68;;
53010;SDS011;42803;55.762;38.084;2022-09-30T04:03:55;18.92;;;8.85;;
53010;SDS011;42803;55.762;38.084;2022-09-30T04:06:25;16.90;;;8.30;;
53010;SDS011;42803;55.762;38.084;2022-09-30T04:08:55;18.42;;;9.30;;
53010;SDS011;42803;55.762;38.084;2022-09-30T04:11:24;17.40;;;9.32;;
53010;SDS011;42803;55.762;38.084;2022-09-30T04:13:54;17.88;;;8.75;;
53010;SDS011;42803;55.762;38.084;2022-09-30T04:16:23;13.07;;;6.70;;
53010;SDS011;42803;55.762;38.084;2022-09-30T04:18:53;15.73;;;8.90;;
53010;SDS011;42803;55.762;38.084;2022-09-30T04:21:23;15.23;;;8.60;;
53010;SDS011;42803;55.762;38.084;2022-09-30T04:23:56;18.75;;;10.05;;
53010;SDS011;42803;55.762;38.084;2022-09-30T04:26:25;18.67;;;9.30;;
53010;SDS011;42803;55.762;38.084;2022-09-30T04:28:54;16.08;;;8.95;;
53010;SDS011;42803;55.762;38.084;2022-09-30T04:31:24;19.48;;;9.55;;
53010;SDS011;42803;55.762;38.084;2022-09-30T04:33:54;16.90;;;8.30;;
53010;SDS011;42803;55.762;38.084;2022-09-30T04:36:24;15.32;;;8.25;;
53010;SDS011;42803;55.762;38.084;2022-09-30T04:38:53;13.60;;;7.47;;
53010;SDS011;42803;55.762;38.084;2022-09-30T04:41:23;15.70;;;8.45;;
53010;SDS011;42803;55.762;38.084;2022-09-30T04:43:54;16.90;;;8.40;;
53010;SDS011;42803;55.762;38.084;2022-09-30T04:46:24;14.88;;;8.43;;
53010;SDS011;42803;55.762;38.084;2022-09-30T04:48:54;16.55;;;8.65;;
53010;SDS011;42803;55.762;38.084;2022-09-30T04:51:24;14.85;;;8.48;;
53010;SDS011;42803;55.762;38.084;2022-09-30T04:53:56;16.00;;;9.05;;
53010;SDS011;42803;55.762;38.084;2022-09-30T04:56:28;15.02;;;8.20;;
53010;SDS011;42803;55.762;38.084;2022-09-30T04:58:58;15.13;;;8.57;;
53010;SDS011;42803;55.762;38.084;2022-09-30T05:01:27;16.10;;;8.40;;
53010;SDS011;42803;55.762;38.084;2022-09-30T05:03:56;15.82;;;7.82;;
53010;SDS011;42803;55.762;38.084;2022-09-30T05:06:26;15.52;;;8.15;;
53010;SDS011;42803;55.762;38.084;2022-09-30T05:08:55;13.63;;;8.27;;
53010;SDS011;42803;55.762;38.084;2022-09-30T05:11:24;15.20;;;8.57;;
53010;SDS011;42803;55.762;38.084;2022-09-30T05:13:55;17.77;;;8.85;;
53010;SDS011;42803;55.762;38.084;2022-09-30T05:16:25;14.55;;;7.78;;
53010;SDS011;42803;55.762;38.084;2022-09-30T05:18:55;14.15;;;8.15;;
53010;SDS011;42803;55.762;38.084;2022-09-30T05:21:24;17.95;;;8.40;;
53010;SDS011;42803;55.762;38.084;2022-09-30T05:23:57;15.43;;;8.10;;
53010;SDS011;42803;55.762;38.084;2022-09-30T05:26:26;13.35;;;8.10;;
53010;SDS011;42803;55.762;38.084;2022-09-30T05:30:31;15.15;;;7.95;;
53010;SDS011;42803;55.762;38.084;2022-09-30T05:33:03;13.57;;;7.88;;
53010;SDS011;42803;55.762;38.084;2022-09-30T05:35:34;14.10;;;8.00;;
53010;SDS011;42803;55.762;38.084;2022-09-30T05:38:04;14.18;;;8.88;;
53010;SDS011;42803;55.762;38.084;2022-09-30T05:40:35;15.85;;;8.55;;
53010;SDS011;42803;55.762;38.084;2022-09-30T05:43:05;18.05;;;8.70;;
53010;SDS011;42803;55.762;38.084;2022-09-30T05:48:32;17.48;;;8.80;;
53010;SDS011;42803;55.762;38.084;2022-09-30T05:51:02;13.07;;;7.13;;
53010;SDS011;42803;55.762;38.084;2022-09-30T05:53:33;14.50;;;7.95;;
53010;SDS011;42803;55.762;38.084;2022-09-30T05:56:05;12.02;;;7.25;;
53010;SDS011;42803;55.762;38.084;2022-09-30T05:58:35;12.80;;;7.90;;
53010;SDS011;42803;55.762;38.084;2022-09-30T06:01:10;11.98;;;7.13;;
53010;SDS011;42803;55.762;38.084;2022-09-30T06:03:43;14.38;;;8.40;;
53010;SDS011;42803;55.762;38.084;2022-09-30T06:06:14;12.57;;;7.97;;
53010;SDS011;42803;55.762;38.084;2022-09-30T06:08:43;13.40;;;7.15;;
53010;SDS011;42803;55.762;38.084;2022-09-30T06:11:14;11.52;;;6.75;;
53010;SDS011;42803;55.762;38.084;2022-09-30T06:13:47;10.23;;;6.40;;
53010;SDS011;42803;55.762;38.084;2022-09-30T06:16:23;12.95;;;6.70;;
53010;SDS011;42803;55.762;38.084;2022-09-30T06:18:53;11.68;;;6.72;;
53010;SDS011;42803;55.762;38.084;2022-09-30T06:21:22;12.35;;;7.43;;
53010;SDS011;42803;55.762;38.084;2022-09-30T06:23:52;12.18;;;7.50;;
53010;SDS011;42803;55.762;38.084;2022-09-30T06:26:23;10.95;;;7.13;;
53010;SDS011;42803;55.762;38.084;2022-09-30T06:28:53;12.93;;;8.13;;
53010;SDS011;42803;55.762;38.084;2022-09-30T06:31:24;13.80;;;6.97;;
53010;SDS011;42803;55.762;38.084;2022-09-30T06:33:55;14.68;;;7.40;;
53010;SDS011;42803;55.762;38.084;2022-09-30T06:36:25;11.90;;;6.50;;
53010;SDS011;42803;55.762;38.084;2022-09-30T06:39:23;13.07;;;7.35;;
53010;SDS011;42803;55.762;38.084;2022-09-30T06:41:54;19.85;;;11.20;;
53010;SDS011;42803;55.762;38.084;2022-09-30T06:44:24;10.50;;;7.00;;
53010;SDS011;42803;55.762;38.084;2022-09-30T06:46:57;11.40;;;6.90;;
53010;SDS011;42803;55.762;38.084;2022-09-30T06:49:37;10.90;;;6.80;;
53010;SDS011;42803;55.762;38.084;2022-09-30T06:52:16;11.23;;;6.88;;
53010;SDS011;42803;55.762;38.084;2022-09-30T06:54:51;13.68;;;7.32;;
53010;SDS011;42803;55.762;38.084;2022-09-30T06:57:25;11.15;;;6.13;;
53010;SDS011;42803;55.762;38.084;2022-09-30T06:59:55;12.40;;;6.90;;
53010;SDS011;42803;55.762;38.084;2022-09-30T07:09:11;10.63;;;6.75;;
53010;SDS011;42803;55.762;38.084;2022-09-30T07:12:14;15.10;;;7.15;;
53010;SDS011;42803;55.762;38.084;2022-09-30T07:15:11;16.80;;;8.80;;
53010;SDS011;42803;55.762;38.084;2022-09-30T07:17:48;12.77;;;6.93;;
53010;SDS011;42803;55.762;38.084;2022-09-30T07:23:21;11.85;;;6.95;;
53010;SDS011;42803;55.762;38.084;2022-09-30T07:25:54;15.02;;;7.60;;
53010;SDS011;42803;55.762;38.084;2022-09-30T07:28:27;14.27;;;7.75;;
53010;SDS011;42803;55.762;38.084;2022-09-30T07:31:06;12.40;;;7.40;;
53010;SDS011;42803;55.762;38.084;2022-09-30T07:34:03;12.73;;;7.07;;
53010;SDS011;42803;55.762;38.084;2022-09-30T07:36:37;14.55;;;7.05;;
53010;SDS011;42803;55.762;38.084;2022-09-30T07:39:15;13.45;;;7.70;;
53010;SDS011;42803;55.762;38.084;2022-09-30T07:41:45;12.70;;;8.10;;
53010;SDS011;42803;55.762;38.084;2022-09-30T07:44:28;14.38;;;7.72;;
53010;SDS011;42803;55.762;38.084;2022-09-30T07:47:03;11.70;;;7.82;;
53010;SDS011;42803;55.762;38.084;2022-09-30T07:49:41;12.05;;;7.55;;
53010;SDS011;42803;55.762;38.084;2022-09-30T07:52:12;14.07;;;8.40;;
53010;SDS011;42803;55.762;38.084;2022-09-30T07:54:44;17.70;;;9.30;;
53010;SDS011;42803;55.762;38.084;2022-09-30T07:57:26;15.18;;;7.90;;
53010;SDS011;42803;55.762;38.084;2022-09-30T07:59:58;19.15;;;8.70;;
53010;SDS011;42803;55.762;38.084;2022-09-30T08:02:51;15.25;;;8.23;;
53010;SDS011;42803;55.762;38.084;2022-09-30T08:05:20;15.52;;;8.20;;
53010;SDS011;42803;55.762;38.084;2022-09-30T08:07:51;17.63;;;8.20;;
53010;SDS011;42803;55.762;38.084;2022-09-30T08:10:22;15.15;;;7.63;;
53010;SDS011;42803;55.762;38.084;2022-09-30T08:12:52;18.48;;;8.63;;
53010;SDS011;42803;55.762;38.084;2022-09-30T08:15:26;17.08;;;8.40;;
53010;SDS011;42803;55.762;38.084;2022-09-30T08:17:56;16.67;;;8.35;;
53010;SDS011;42803;55.762;38.084;2022-09-30T08:20:26;14.85;;;8.35;;
53010;SDS011;42803;55.762;38.084;2022-09-30T08:22:57;14.98;;;8.77;;
53010;SDS011;42803;55.762;38.084;2022-09-30T08:25:27;16.75;;;8.68;;
53010;SDS011;42803;55.762;38.084;2022-09-30T08:27:57;19.67;;;7.72;;
53010;SDS011;42803;55.762;38.084;2022-09-30T08:30:27;15.93;;;7.38;;
53010;SDS011;42803;55.762;38.084;2022-09-30T08:32:57;15.27;;;8.18;;
53010;SDS011;42803;55.762;38.084;2022-09-30T08:35:27;16.50;;;8.40;;
53010;SDS011;42803;55.762;38.084;2022-09-30T08:37:58;41.67;;;18.30;;
53010;SDS011;42803;55.762;38.084;2022-09-30T08:40:29;14.57;;;7.80;;
53010;SDS011;42803;55.762;38.084;2022-09-30T08:43:06;13.82;;;7.82;;
53010;SDS011;42803;55.762;38.084;2022-09-30T08:46:00;14.73;;;7.28;;
53010;SDS011;42803;55.762;38.084;2022-09-30T08:48:39;14.18;;;7.68;;
53010;SDS011;42803;55.762;38.084;2022-09-30T08:51:23;20.70;;;7.43;;
53010;SDS011;42803;55.762;38.084;2022-09-30T08:54:05;13.90;;;7.32;;
53010;SDS011;42803;55.762;38.084;2022-09-30T08:56:42;15.10;;;7.85;;
53010;SDS011;42803;55.762;38.084;2022-09-30T08:59:16;13.35;;;7.88;;
53010;SDS011;42803;55.762;38.084;2022-09-30T09:02:03;12.35;;;7.93;;
53010;SDS011;42803;55.762;38.084;2022-09-30T09:04:44;12.00;;;7.15;;
53010;SDS011;42803;55.762;38.084;2022-09-30T09:07:18;12.38;;;6.93;;
53010;SDS011;42803;55.762;38.084;2022-09-30T09:10:09;14.75;;;8.10;;
53010;SDS011;42803;55.762;38.084;2022-09-30T09:12:57;12.38;;;7.00;;
53010;SDS011;42803;55.762;38.084;2022-09-30T09:15:44;15.50;;;7.55;;
53010;SDS011;42803;55.762;38.084;2022-09-30T09:18:29;18.73;;;8.88;;
53010;SDS011;42803;55.762;38.084;2022-09-30T09:21:33;13.00;;;7.57;;
53010;SDS011;42803;55.762;38.084;2022-09-30T09:24:17;17.92;;;8.52;;
53010;SDS011;42803;55.762;38.084;2022-09-30T09:26:51;18.90;;;10.80;;
53010;SDS011;42803;55.762;38.084;2022-09-30T09:29:33;16.52;;;8.60;;
53010;SDS011;42803;55.762;38.084;2022-09-30T09:32:13;12.82;;;8.18;;
53010;SDS011;42803;55.762;38.084;2022-09-30T09:42:20;15.80;;;9.52;;
53010;SDS011;42803;55.762;38.084;2022-09-30T09:45:15;18.15;;;10.20;;
53010;SDS011;42803;55.762;38.084;2022-09-30T09:47:56;16.83;;;8.82;;
53010;SDS011;42803;55.762;38.084;2022-09-30T09:50:33;11.07;;;7.45;;
53010;SDS011;42803;55.762;38.084;2022-09-30T09:53:28;18.88;;;8.77;;
53010;SDS011;42803;55.762;38.084;2022-09-30T09:56:10;14.38;;;7.32;;
53010;SDS011;42803;55.762;38.084;2022-09-30T09:59:12;17.88;;;8.13;;
53010;SDS011;42803;55.762;38.084;2022-09-30T10:01:54;12.55;;;7.22;;
53010;SDS011;42803;55.762;38.084;2022-09-30T10:04:25;15.07;;;7.38;;
53010;SDS011;42803;55.762;38.084;2022-09-30T10:06:57;16.55;;;8.52;;
53010;SDS011;42803;55.762;38.084;2022-09-30T10:09:32;11.63;;;7.18;;
53010;SDS011;42803;55.762;38.084;2022-09-30T10:15:12;12.20;;;7.40;;
53010;SDS011;42803;55.762;38.084;2022-09-30T10:17:53;11.93;;;6.97;;
53010;SDS011;42803;55.762;38.084;2022-09-30T10:20:26;12.15;;;6.93;;
53010;SDS011;42803;55.762;38.084;2022-09-30T10:23:01;11.85;;;6.72;;
53010;SDS011;42803;55.762;38.084;2022-09-30T10:25:41;10.25;;;6.28;;
53010;SDS011;42803;55.762;38.084;2022-09-30T10:28:27;10.45;;;6.38;;
53010;SDS011;42803;55.762;38.084;2022-09-30T10:31:02;12.02;;;6.32;;
53010;SDS011;42803;55.762;38.084;2022-09-30T10:33:39;10.70;;;6.13;;
53010;SDS011;42803;55.762;38.084;2022-09-30T10:36:15;10.88;;;6.38;;
53010;SDS011;42803;55.762;38.084;2022-09-30T10:38:56;10.82;;;6.50;;
53010;SDS011;42803;55.762;38.084;2022-09-30T10:41:34;12.13;;;6.68;;
53010;SDS011;42803;55.762;38.084;2022-09-30T10:44:11;9.77;;;6.55;;
53010;SDS011;42803;55.762;38.084;2022-09-30T10:46:53;12.55;;;7.03;;
53010;SDS011;42803;55.762;38.084;2022-09-30T10:49:34;16.27;;;8.00;;
53010;SDS011;42803;55.762;38.084;2022-09-30T10:52:14;11.52;;;6.10;;
53010;SDS011;42803;55.762;38.084;2022-09-30T10:54:53;13.75;;;6.93;;
53010;SDS011;42803;55.762;38.084;2022-09-30T10:57:50;11.82;;;6.53;;
53010;SDS011;42803;55.762;38.084;2022-09-30T11:00:52;14.07;;;7.30;;
53010;SDS011;42803;55.762;38.084;2022-09-30T11:03:33;13.15;;;6.30;;
53010;SDS011;42803;55.762;38.084;2022-09-30T11:06:10;10.70;;;6.82;;
53010;SDS011;42803;55.762;38.084;2022-09-30T11:08:44;11.10;;;6.35;;
53010;SDS011;42803;55.762;38.084;2022-09-30T11:11:24;11.98;;;6.30;;
53010;SDS011;42803;55.762;38.084;2022-09-30T11:14:04;9.27;;;6.32;;
53010;SDS011;42803;55.762;38.084;2022-09-30T11:16:51;10.75;;;6.55;;
53010;SDS011;42803;55.762;38.084;2022-09-30T11:19:42;12.13;;;6.35;;
53010;SDS011;42803;55.762;38.084;2022-09-30T11:22:30;13.93;;;8.18;;
53010;SDS011;42803;55.762;38.084;2022-09-30T11:25:31;15.30;;;8.90;;
53010;SDS011;42803;55.762;38.084;2022-09-30T11:28:27;9.20;;;5.57;;
53010;SDS011;42803;55.762;38.084;2022-09-30T11:31:14;9.32;;;6.00;;
53010;SDS011;42803;55.762;38.084;2022-09-30T11:34:21;10.38;;;5.97;;
53010;SDS011;42803;55.762;38.084;2022-09-30T11:37:15;12.60;;;6.38;;
53010;SDS011;42803;55.762;38.084;2022-09-30T11:40:29;13.38;;;6.30;;
53010;SDS011;42803;55.762;38.084;2022-09-30T11:43:19;10.25;;;6.95;;
53010;SDS011;42803;55.762;38.084;2022-09-30T11:52:39;14.98;;;6.63;;
53010;SDS011;42803;55.762;38.084;2022-09-30T11:55:25;7.60;;;5.43;;
53010;SDS011;42803;55.762;38.084;2022-09-30T12:00:58;10.65;;;6.88;;
53010;SDS011;42803;55.762;38.084;2022-09-30T12:03:37;9.68;;;6.32;;
53010;SDS011;42803;55.762;38.084;2022-09-30T12:06:14;9.98;;;5.93;;
53010;SDS011;42803;55.762;38.084;2022-09-30T12:08:57;8.85;;;5.72;;
53010;SDS011;42803;55.762;38.084;2022-09-30T12:11:40;11.45;;;6.18;;
53010;SDS011;42803;55.762;38.084;2022-09-30T12:14:18;9.63;;;5.72;;
53010;SDS011;42803;55.762;38.084;2022-09-30T12:16:54;14.23;;;5.88;;
53010;SDS011;42803;55.762;38.084;2022-09-30T12:23:13;10.63;;;5.80;;
53010;SDS011;42803;55.762;38.084;2022-09-30T12:26:02;8.30;;;5.80;;
53010;SDS011;42803;55.762;38.084;2022-09-30T12:28:36;10.48;;;6.30;;
53010;SDS011;42803;55.762;38.084;2022-09-30T12:31:42;9.80;;;6.60;;
53010;SDS011;42803;55.762;38.084;2022-09-30T12:34:30;11.35;;;6.63;;
53010;SDS011;42803;55.762;38.084;2022-09-30T12:41:35;11.52;;;6.72;;
53010;SDS011;42803;55.762;38.084;2022-09-30T12:50:52;13.27;;;7.95;;
53010;SDS011;42803;55.762;38.084;2022-09-30T12:54:03;12.93;;;7.30;;
53010;SDS011;42803;55.762;38.084;2022-09-30T12:56:46;13.23;;;7.78;;
53010;SDS011;42803;55.762;38.084;2022-09-30T12:59:28;11.90;;;7.43;;
53010;SDS011;42803;55.762;38.084;2022-09-30T13:02:02;10.65;;;7.43;;
53010;SDS011;42803;55.762;38.084;2022-09-30T13:04:35;10.73;;;6.93;;
53010;SDS011;42803;55.762;38.084;2022-09-30T13:07:12;14.02;;;7.72;;
53010;SDS011;42803;55.762;38.084;2022-09-30T13:09:56;15.35;;;7.60;;
53010;SDS011;42803;55.762;38.084;2022-09-30T13:12:40;15.90;;;7.88;;
53010;SDS011;42803;55.762;38.084;2022-09-30T13:21:22;12.60;;;8.55;;
53010;SDS011;42803;55.762;38.084;2022-09-30T13:23:59;14.05;;;9.30;;
53010;SDS011;42803;55.762;38.084;2022-09-30T13:26:35;10.63;;;7.70;;
53010;SDS011;42803;55.762;38.084;2022-09-30T13:29:37;13.80;;;7.95;;
53010;SDS011;42803;55.762;38.084;2022-09-30T13:32:30;13.20;;;8.23;;
53010;SDS011;42803;55.762;38.084;2022-09-30T13:35:28;13.40;;;8.10;;
53010;SDS011;42803;55.762;38.084;2022-09-30T13:38:17;13.05;;;8.10;;
53010;SDS011;42803;55.762;38.084;2022-09-30T13:40:54;11.43;;;7.57;;
53010;SDS011;42803;55.762;38.084;2022-09-30T13:43:31;12.43;;;8.35;;
53010;SDS011;42803;55.762;38.084;2022-09-30T13:48:42;12.95;;;7.85;;
53010;SDS011;42803;55.762;38.084;2022-09-30T13:51:23;10.63;;;7.80;;
53010;SDS011;42803;55.762;38.084;2022-09-30T13:54:01;15.48;;;8.45;;
53010;SDS011;42803;55.762;38.084;2022-09-30T13:56:36;16.50;;;9.18;;
53010;SDS011;42803;55.762;38.084;2022-09-30T14:02:31;12.10;;;7.60;;
53010;SDS011;42803;55.762;38.084;2022-09-30T14:05:23;12.23;;;8.27;;
53010;SDS011;42803;55.762;38.084;2022-09-30T14:11:50;15.25;;;8.27;;
53010;SDS011;42803;55.762;38.084;2022-09-30T14:14:53;13.40;;;8.70;;
53010;SDS011;42803;55.762;38.084;2022-09-30T14:17:45;13.93;;;8.70;;
53010;SDS011;42803;55.762;38.084;2022-09-30T14:20:35;14.38;;;8.98;;
53010;SDS011;42803;55.762;38.084;2022-09-30T14:23:18;17.48;;;8.32;;
53010;SDS011;42803;55.762;38.084;2022-09-30T14:25:51;14.13;;;9.52;;
53010;SDS011;42803;55.762;38.084;2022-09-30T14:28:31;16.80;;;9.18;;
53010;SDS011;42803;55.762;38.084;2022-09-30T14:31:10;14.55;;;9.23;;
53010;SDS011;42803;55.762;38.084;2022-09-30T14:33:46;20.98;;;14.00;;
53010;SDS011;42803;55.762;38.084;2022-09-30T14:36:20;16.92;;;10.60;;
53010;SDS011;42803;55.762;38.084;2022-09-30T14:38:54;14.30;;;9.20;;
53010;SDS011;42803;55.762;38.084;2022-09-30T14:41:35;21.02;;;10.15;;
53010;SDS011;42803;55.762;38.084;2022-09-30T14:44:10;15.38;;;10.77;;
53010;SDS011;42803;55.762;38.084;2022-09-30T14:46:48;18.10;;;10.55;;
53010;SDS011;42803;55.762;38.084;2022-09-30T14:49:30;15.85;;;10.10;;
53010;SDS011;42803;55.762;38.084;2022-09-30T14:52:05;18.92;;;10.55;;
53010;SDS011;42803;55.762;38.084;2022-09-30T14:55:18;14.13;;;10.20;;
53010;SDS011;42803;55.762;38.084;2022-09-30T15:00:55;18.45;;;10.77;;
53010;SDS011;42803;55.762;38.084;2022-09-30T15:03:50;14.30;;;10.70;;
53010;SDS011;42803;55.762;38.084;2022-09-30T15:07:12;17.95;;;11.13;;
53010;SDS011;42803;55.762;38.084;2022-09-30T15:10:23;17.17;;;10.50;;
53010;SDS011;42803;55.762;38.084;2022-09-30T15:23:47;16.63;;;11.55;;
53010;SDS011;42803;55.762;38.084;2022-09-30T15:26:38;18.15;;;11.70;;
53010;SDS011;42803;55.762;38.084;2022-09-30T15:29:34;18.27;;;10.47;;
53010;SDS011;42803;55.762;38.084;2022-09-30T15:32:42;17.85;;;11.02;;
53010;SDS011;42803;55.762;38.084;2022-09-30T15:38:16;20.25;;;10.85;;
53010;SDS011;42803;55.762;38.084;2022-09-30T15:40:51;17.73;;;11.55;;
53010;SDS011;42803;55.762;38.084;2022-09-30T15:43:29;19.92;;;11.90;;
53010;SDS011;42803;55.762;38.084;2022-09-30T15:46:16;14.88;;;10.23;;
53010;SDS011;42803;55.762;38.084;2022-09-30T15:48:53;20.27;;;11.05;;
53010;SDS011;42803;55.762;38.084;2022-09-30T15:51:29;18.77;;;11.18;;
53010;SDS011;42803;55.762;38.084;2022-09-30T15:54:25;17.15;;;10.23;;
53010;SDS011;42803;55.762;38.084;2022-09-30T15:57:00;19.70;;;9.95;;
53010;SDS011;42803;55.762;38.084;2022-09-30T15:59:56;19.33;;;10.88;;
53010;SDS011;42803;55.762;38.084;2022-09-30T16:02:32;17.80;;;11.27;;
53010;SDS011;42803;55.762;38.084;2022-09-30T16:05:05;19.45;;;12.25;;
53010;SDS011;42803;55.762;38.084;2022-09-30T16:07:37;18.50;;;11.45;;
53010;SDS011;42803;55.762;38.084;2022-09-30T16:10:15;21.85;;;12.05;;
53010;SDS011;42803;55.762;38.084;2022-09-30T16:12:53;19.73;;;11.52;;
53010;SDS011;42803;55.762;38.084;2022-09-30T16:15:23;17.90;;;12.23;;
53010;SDS011;42803;55.762;38.084;2022-09-30T16:17:57;19.42;;;12.13;;
53010;SDS011;42803;55.762;38.084;2022-09-30T16:20:27;18.50;;;11.20;;
53010;SDS011;42803;55.762;38.084;2022-09-30T16:22:57;17.10;;;11.63;;
53010;SDS011;42803;55.762;38.084;2022-09-30T16:25:29;18.20;;;11.75;;
53010;SDS011;42803;55.762;38.084;2022-09-30T16:28:07;20.40;;;11.68;;
53010;SDS011;42803;55.762;38.084;2022-09-30T16:30:40;19.80;;;12.43;;
53010;SDS011;42803;55.762;38.084;2022-09-30T16:33:12;20.13;;;12.00;;
53010;SDS011;42803;55.762;38.084;2022-09-30T16:35:43;22.40;;;12.00;;
53010;SDS011;42803;55.762;38.084;2022-09-30T16:38:17;18.90;;;11.65;;
53010;SDS011;42803;55.762;38.084;2022-09-30T16:40:47;17.85;;;11.57;;
53010;SDS011;42803;55.762;38.084;2022-09-30T16:43:18;22.40;;;12.18;;
53010;SDS011;42803;55.762;38.084;2022-09-30T16:45:51;21.63;;;11.70;;
53010;SDS011;42803;55.762;38.084;2022-09-30T16:48:22;22.80;;;11.93;;
53010;SDS011;42803;55.762;38.084;2022-09-30T16:50:56;23.63;;;13.23;;
53010;SDS011;42803;55.762;38.084;2022-09-30T16:53:31;22.05;;;12.55;;
53010;SDS011;42803;55.762;38.084;2022-09-30T16:56:01;21.17;;;12.02;;